Time;durP1;ratioP1;P1;durP2;ratioP2;P2;SDS_P1;SDS_P2;PMS_P1;PMS_P2;Temp;Humidity;BMP_temperature;BMP_pressure;BME280_temperature;BME280_humidity;BME280_pressure;Samples;Min_cycle;Max_cycle;Signal;HPM_P1;HPM_P2
2023/10/12 00:01:01;;;;;;;16.05;14.38;;;14.20;99.90;;;;;;6431550;23;20393;-87
2023/10/12 00:03:31;;;;;;;23.42;20.83;;;13.90;99.90;;;;;;6404432;23;20475;-87
2023/10/12 00:06:05;;;;;;;76.47;33.80;;;14.10;99.90;;;;;;6404383;23;20000;-85
2023/10/12 00:08:37;;;;;;;11.88;10.70;;;14.20;99.90;;;;;;6404720;23;20389;-85
2023/10/12 00:11:08;;;;;;;28.92;22.92;;;14.30;99.90;;;;;;6431221;23;20424;-87
2023/10/12 00:13:42;;;;;;;16.00;14.57;;;14.00;99.90;;;;;;6431407;23;20007;-87
2023/10/12 00:16:18;;;;;;;34.83;29.17;;;14.00;99.90;;;;;;6431354;23;20085;-87
2023/10/12 00:18:49;;;;;;;14.90;12.10;;;13.90;99.90;;;;;;6431299;23;20084;-86
2023/10/12 00:21:25;;;;;;;11.40;10.45;;;14.10;99.90;;;;;;6411756;23;20048;-87
2023/10/12 00:23:57;;;;;;;26.02;21.20;;;14.30;99.90;;;;;;6431288;23;20432;-86
2023/10/12 00:26:31;;;;;;;22.60;19.67;;;14.20;99.90;;;;;;6431099;23;20001;-83
2023/10/12 00:29:06;;;;;;;12.15;11.05;;;14.30;99.90;;;;;;6429671;23;20039;-86
2023/10/12 00:31:42;;;;;;;11.45;10.32;;;14.20;99.90;;;;;;6430913;23;20000;-86
2023/10/12 00:34:14;;;;;;;14.77;12.98;;;14.30;99.90;;;;;;6429499;23;20031;-87
2023/10/12 00:36:45;;;;;;;14.55;12.40;;;14.00;99.90;;;;;;6430861;23;20091;-86
2023/10/12 00:39:16;;;;;;;9.10;8.23;;;14.20;99.90;;;;;;6429261;23;20004;-86
2023/10/12 00:41:48;;;;;;;8.68;6.47;;;14.10;99.90;;;;;;6429397;23;20004;-88
2023/10/12 00:44:20;;;;;;;10.27;9.25;;;14.00;99.90;;;;;;6429522;23;20005;-83
2023/10/12 00:49:30;;;;;;;6.70;5.95;;;14.30;99.90;;;;;;6431003;23;20008;-86
2023/10/12 00:52:21;;;;;;;20.10;16.33;;;14.40;99.90;;;;;;6431070;23;20328;-87
2023/10/12 00:55:01;;;;;;;9.40;5.80;;;14.20;99.90;;;;;;6431104;23;20005;-87
2023/10/12 00:57:35;;;;;;;6.18;5.57;;;14.40;99.90;;;;;;6431059;23;20081;-88
2023/10/12 01:00:15;;;;;;;7.20;5.07;;;14.50;99.90;;;;;;6429368;23;20333;-85
2023/10/12 01:03:06;;;;;;;9.52;4.72;;;14.30;99.90;;;;;;6431152;23;20011;-86
2023/10/12 01:05:37;;;;;;;7.28;5.47;;;14.50;99.90;;;;;;6430705;23;20000;-85
2023/10/12 01:08:10;;;;;;;8.80;6.20;;;14.30;99.90;;;;;;6429327;23;20340;-86
2023/10/12 01:10:41;;;;;;;9.18;6.93;;;14.10;99.90;;;;;;6430995;23;20032;-87
2023/10/12 01:13:12;;;;;;;6.60;5.93;;;14.20;99.90;;;;;;6431044;23;20436;-86
2023/10/12 01:15:46;;;;;;;7.82;7.22;;;14.20;99.90;;;;;;6430572;23;20389;-87
2023/10/12 01:18:28;;;;;;;7.68;7.03;;;14.10;99.90;;;;;;6430969;23;20396;-86
2023/10/12 01:20:58;;;;;;;7.32;6.05;;;14.40;99.90;;;;;;6430493;23;20017;-86
2023/10/12 01:23:33;;;;;;;12.23;7.15;;;14.30;99.90;;;;;;6430477;23;20004;-87
2023/10/12 01:26:10;;;;;;;6.90;6.28;;;14.30;99.90;;;;;;6430369;23;20071;-87
2023/10/12 01:28:45;;;;;;;7.80;5.53;;;14.50;99.90;;;;;;6430384;23;20087;-85
2023/10/12 01:31:28;;;;;;;7.68;6.78;;;14.60;99.90;;;;;;6403854;23;20091;-87
2023/10/12 01:33:59;;;;;;;12.35;9.07;;;14.50;99.90;;;;;;6403784;23;20015;-87
2023/10/12 01:36:32;;;;;;;16.73;14.98;;;14.60;99.90;;;;;;6403857;23;20005;-87
2023/10/12 01:39:14;;;;;;;7.90;6.97;;;14.70;99.90;;;;;;6430602;23;20000;-86
2023/10/12 01:41:47;;;;;;;8.90;7.15;;;14.80;99.90;;;;;;6430336;23;20004;-87
2023/10/12 01:44:18;;;;;;;10.45;6.38;;;14.70;99.90;;;;;;6430458;23;20001;-87
2023/10/12 01:46:49;;;;;;;7.43;6.78;;;14.80;99.90;;;;;;6403793;23;20552;-87
2023/10/12 01:49:20;;;;;;;12.05;8.13;;;14.70;99.90;;;;;;6403682;23;20032;-87
2023/10/12 01:51:52;;;;;;;11.43;9.77;;;14.80;99.90;;;;;;6403557;23;20008;-85
2023/10/12 01:54:24;;;;;;;8.90;8.15;;;14.70;99.90;;;;;;6430411;23;20108;-87
2023/10/12 01:56:55;;;;;;;10.77;9.82;;;14.60;99.90;;;;;;6403689;23;20013;-86
2023/10/12 01:59:26;;;;;;;12.65;10.57;;;14.50;99.90;;;;;;6430378;23;20000;-88
2023/10/12 02:02:07;;;;;;;8.82;7.70;;;14.50;99.90;;;;;;6430366;23;20083;-84
2023/10/12 02:04:40;;;;;;;8.88;8.00;;;14.50;99.90;;;;;;6430348;23;20001;-86
2023/10/12 02:07:11;;;;;;;8.05;6.82;;;14.60;99.90;;;;;;6430261;23;20009;-87
2023/10/12 02:09:49;;;;;;;10.02;8.15;;;14.50;99.90;;;;;;6403577;23;20405;-84
2023/10/12 02:12:26;;;;;;;8.73;7.55;;;14.60;99.90;;;;;;6429877;23;19996;-83
2023/10/12 02:14:57;;;;;;;8.98;7.90;;;14.60;99.90;;;;;;6402683;23;20424;-83
2023/10/12 02:17:28;;;;;;;8.60;7.93;;;14.50;99.90;;;;;;6430165;23;20007;-83
2023/10/12 02:19:59;;;;;;;9.18;7.82;;;14.40;99.90;;;;;;6403375;23;20012;-86
2023/10/12 02:22:32;;;;;;;8.07;7.28;;;14.40;99.90;;;;;;6429646;23;20016;-86
2023/10/12 02:25:18;;;;;;;8.18;6.50;;;14.20;99.90;;;;;;6430295;23;20440;-86
2023/10/12 02:27:58;;;;;;;7.25;6.53;;;14.50;99.90;;;;;;6431192;23;20013;-86
2023/10/12 02:30:29;;;;;;;7.88;6.47;;;14.30;99.90;;;;;;6432266;23;20075;-87
2023/10/12 02:33:08;;;;;;;6.28;5.50;;;14.20;99.90;;;;;;6432305;23;20028;-87
2023/10/12 02:35:44;;;;;;;7.85;5.60;;;14.20;99.90;;;;;;6432449;23;20004;-86
2023/10/12 02:38:15;;;;;;;6.80;6.15;;;14.40;99.90;;;;;;6432487;23;20552;-86
2023/10/12 02:40:47;;;;;;;7.35;6.75;;;14.30;99.90;;;;;;6432299;23;20008;-86
2023/10/12 02:43:19;;;;;;;7.28;6.68;;;14.40;99.90;;;;;;6432378;23;20427;-86
2023/10/12 02:45:52;;;;;;;5.97;5.35;;;14.40;99.90;;;;;;6432222;23;20008;-86
2023/10/12 02:48:23;;;;;;;6.05;5.20;;;14.20;99.90;;;;;;6432130;23;20012;-87
2023/10/12 02:51:17;;;;;;;6.45;5.50;;;14.10;99.90;;;;;;6432072;23;20302;-87
2023/10/12 02:53:47;;;;;;;6.15;5.20;;;14.20;99.90;;;;;;6431273;23;20087;-86
2023/10/12 02:56:24;;;;;;;6.00;5.10;;;14.10;99.90;;;;;;6432277;23;20027;-86
2023/10/12 02:59:01;;;;;;;7.90;6.05;;;14.20;99.90;;;;;;6432376;23;20035;-85
2023/10/12 03:01:31;;;;;;;6.40;4.88;;;14.20;99.90;;;;;;6432077;23;20004;-87
2023/10/12 03:04:05;;;;;;;6.07;4.60;;;14.20;99.90;;;;;;6432158;23;20332;-86
2023/10/12 03:06:52;;;;;;;6.18;4.63;;;14.40;99.90;;;;;;6432029;23;20005;-85
2023/10/12 03:09:36;;;;;;;7.13;4.82;;;14.40;99.90;;;;;;6432097;23;20001;-87
2023/10/12 03:12:07;;;;;;;6.20;5.60;;;14.40;99.90;;;;;;6432016;23;20000;-86
2023/10/12 03:14:40;;;;;;;6.93;5.78;;;14.60;99.90;;;;;;6432114;23;20008;-87
2023/10/12 03:17:16;;;;;;;6.40;4.38;;;14.40;99.90;;;;;;6431896;23;20007;-85
2023/10/12 03:19:55;;;;;;;5.63;4.70;;;14.50;99.90;;;;;;6431420;23;20069;-86
2023/10/12 03:22:31;;;;;;;7.32;4.50;;;14.50;99.90;;;;;;6431510;23;20028;-84
2023/10/12 03:25:19;;;;;;;6.95;4.70;;;14.60;99.90;;;;;;6405232;23;20087;-84
2023/10/12 03:27:53;;;;;;;8.43;4.57;;;14.60;99.90;;;;;;6431545;23;20015;-80
2023/10/12 03:31:14;;;;;;;6.97;4.03;;;14.60;99.90;;;;;;6431752;23;20000;-83
2023/10/12 03:33:34;;;;;;;5.78;5.00;;;14.40;99.90;;;;;;6427595;23;20160;-85
2023/10/12 03:36:23;;;;;;;6.50;5.00;;;14.60;99.90;;;;;;6432045;23;20007;-88
2023/10/12 03:44:21;;;;;;;6.80;4.88;;;14.70;99.90;;;;;;6441931;23;20083;-84
2023/10/12 03:47:00;;;;;;;7.28;4.00;;;14.70;99.90;;;;;;6404957;23;20425;-84
2023/10/12 03:49:32;;;;;;;8.17;4.43;;;14.70;99.90;;;;;;6431438;23;20088;-84
2023/10/12 03:52:13;;;;;;;10.23;6.78;;;14.60;99.90;;;;;;6405130;23;20234;-84
2023/10/12 03:55:32;;;;;;;47.72;25.17;;;14.40;99.90;;;;;;6431767;23;20409;-84
2023/10/12 04:19:03;;;;;;;17.75;8.48;;;14.80;99.90;;;;;;6431253;23;20083;-84
2023/10/12 04:21:35;;;;;;;18.27;8.85;;;14.80;99.90;;;;;;6430551;23;20074;-83
2023/10/12 04:29:49;;;;;;;86.35;30.50;;;14.60;99.90;;;;;;6396389;23;20000;-84
2023/10/12 04:32:38;;;;;;;28.95;10.80;;;14.70;99.90;;;;;;6404785;23;20020;-84
2023/10/12 04:35:19;;;;;;;21.25;9.77;;;14.70;99.90;;;;;;6404506;23;20096;-84
2023/10/12 04:37:50;;;;;;;25.52;11.57;;;14.70;99.90;;;;;;6431321;23;20028;-84
2023/10/12 04:40:37;;;;;;;12.35;8.50;;;14.70;99.90;;;;;;6431265;23;20050;-84
2023/10/12 04:43:08;;;;;;;21.67;16.30;;;14.90;99.90;;;;;;6404556;23;20012;-84
2023/10/12 04:48:43;;;;;;;16.63;11.95;;;15.10;99.90;;;;;;6381312;23;20662;-84
2023/10/12 04:51:21;;;;;;;21.80;14.90;;;15.10;99.90;;;;;;6403983;23;20009;-84
2023/10/12 04:53:58;;;;;;;22.23;14.25;;;15.10;99.90;;;;;;6404355;23;20008;-84
2023/10/12 04:56:36;;;;;;;20.92;15.18;;;15.30;99.90;;;;;;6404468;23;20000;-87
2023/10/12 04:59:17;;;;;;;50.03;30.45;;;15.50;99.90;;;;;;6430944;23;20047;-85
2023/10/12 05:09:51;;;;;;;8.15;5.03;;;15.50;99.90;;;;;;6430995;23;20004;-85
2023/10/12 05:12:26;;;;;;;9.60;6.25;;;15.60;99.90;;;;;;6403947;23;20774;-85
2023/10/12 05:15:00;;;;;;;10.40;5.30;;;15.50;99.90;;;;;;6430861;23;20000;-85
2023/10/12 05:17:31;;;;;;;10.85;4.95;;;15.50;99.90;;;;;;6403834;23;20005;-84
2023/10/12 05:20:03;;;;;;;11.05;5.75;;;15.70;99.90;;;;;;6430583;23;20040;-85
2023/10/12 05:22:35;;;;;;;12.70;6.88;;;15.90;99.90;;;;;;6430541;23;20023;-84
2023/10/12 05:25:06;;;;;;;7.78;5.00;;;16.00;99.90;;;;;;6404113;23;20499;-84
2023/10/12 05:27:40;;;;;;;11.40;6.13;;;16.20;99.90;;;;;;6403936;23;20013;-85
2023/10/12 05:30:19;;;;;;;8.23;5.38;;;16.40;99.90;;;;;;6430573;23;20000;-84
2023/10/12 05:32:56;;;;;;;14.65;9.68;;;16.30;99.90;;;;;;6430395;23;20317;-85
2023/10/12 05:38:17;;;;;;;16.65;7.38;;;16.60;99.90;;;;;;6430217;23;20063;-87
2023/10/12 05:40:55;;;;;;;16.17;7.50;;;16.70;99.90;;;;;;6429618;23;20451;-86
2023/10/12 05:43:30;;;;;;;10.80;8.15;;;16.60;99.90;;;;;;6403298;23;20035;-86
2023/10/12 05:46:04;;;;;;;12.05;8.68;;;16.80;99.90;;;;;;6430123;23;20005;-86
2023/10/12 05:48:36;;;;;;;11.90;8.85;;;17.00;99.90;;;;;;6429872;23;20009;-85
2023/10/12 05:51:10;;;;;;;11.38;8.82;;;17.00;99.90;;;;;;6403238;23;20009;-85
2023/10/12 05:53:41;;;;;;;9.30;8.00;;;17.10;99.90;;;;;;6430258;23;20001;-86
2023/10/12 05:56:12;;;;;;;11.93;8.18;;;17.20;99.90;;;;;;6430191;23;20007;-84
2023/10/12 05:58:46;;;;;;;9.55;8.15;;;17.40;99.90;;;;;;6403556;23;20023;-85
2023/10/12 06:01:32;;;;;;;11.20;9.77;;;17.40;99.90;;;;;;6378384;23;20012;-87
2023/10/12 06:04:05;;;;;;;8.70;7.47;;;17.60;99.90;;;;;;6429950;23;20005;-85
2023/10/12 06:06:42;;;;;;;8.13;7.32;;;17.80;99.90;;;;;;6429744;23;20016;-85
2023/10/12 06:09:56;;;;;;;8.63;7.18;;;17.90;99.90;;;;;;6403504;23;20009;-84
2023/10/12 06:12:12;;;;;;;9.73;8.30;;;17.90;99.90;;;;;;6415020;23;20032;-85
2023/10/12 06:14:52;;;;;;;11.35;7.55;;;18.20;99.90;;;;;;6430053;23;20001;-81
2023/10/12 06:17:39;;;;;;;9.65;6.55;;;18.30;99.90;;;;;;6430101;23;19996;-84
2023/10/12 06:20:15;;;;;;;9.27;5.80;;;18.40;99.90;;;;;;6430498;23;20005;-87
2023/10/12 06:22:46;;;;;;;8.77;5.78;;;18.40;99.90;;;;;;6430161;23;20333;-86
2023/10/12 06:25:18;;;;;;;8.18;5.30;;;18.70;99.90;;;;;;6403629;23;20008;-83
2023/10/12 06:27:49;;;;;;;11.70;6.50;;;18.80;99.90;;;;;;6403435;23;20436;-82
2023/10/12 06:30:23;;;;;;;7.90;6.57;;;18.90;99.90;;;;;;6430127;23;20115;-82
2023/10/12 06:32:58;;;;;;;8.80;7.03;;;19.00;99.90;;;;;;6430206;23;20012;-81
2023/10/12 06:35:33;;;;;;;8.48;6.50;;;19.10;99.90;;;;;;6430065;23;19997;-81
2023/10/12 06:38:22;;;;;;;9.70;6.40;;;19.00;99.90;;;;;;6403516;23;20009;-81
2023/10/12 06:41:26;;;;;;;9.05;8.07;;;19.10;99.90;;;;;;6429832;23;20008;-81
2023/10/12 06:43:58;;;;;;;10.43;7.90;;;19.10;99.90;;;;;;6429877;23;20001;-81
2023/10/12 06:46:34;;;;;;;10.35;7.90;;;19.40;99.90;;;;;;6430195;23;20650;-81
2023/10/12 06:49:06;;;;;;;9.10;8.20;;;19.50;99.90;;;;;;6430163;23;20328;-82
2023/10/12 06:51:37;;;;;;;11.65;7.95;;;19.50;99.90;;;;;;6430011;23;20012;-82
2023/10/12 06:54:54;;;;;;;13.10;11.80;;;19.60;99.90;;;;;;6430235;23;20293;-81
2023/10/12 07:02:33;;;;;;;15.80;14.45;;;19.80;99.90;;;;;;6440527;23;20004;-81
2023/10/12 07:05:05;;;;;;;16.25;14.82;;;20.00;99.90;;;;;;6429727;23;20062;-81
2023/10/12 07:07:41;;;;;;;15.30;14.15;;;20.00;99.90;;;;;;6429587;23;20052;-81
2023/10/12 07:10:30;;;;;;;18.15;16.60;;;19.80;99.90;;;;;;6429973;23;20004;-81
2023/10/12 07:13:03;;;;;;;17.25;15.82;;;19.80;99.90;;;;;;6429917;23;20008;-81
2023/10/12 07:15:40;;;;;;;16.88;15.38;;;19.80;99.90;;;;;;6405245;23;20005;-80
2023/10/12 07:18:15;;;;;;;16.85;15.15;;;19.90;99.90;;;;;;6405134;23;20051;-80
2023/10/12 07:20:46;;;;;;;14.23;13.00;;;20.00;99.90;;;;;;6431314;23;20024;-80
2023/10/12 07:23:33;;;;;;;15.65;14.05;;;19.80;99.90;;;;;;6431766;23;20005;-83
2023/10/12 07:26:12;;;;;;;14.48;12.85;;;19.60;99.90;;;;;;6405426;23;20429;-84
2023/10/12 07:28:43;;;;;;;15.57;14.30;;;19.80;99.90;;;;;;6405184;23;20406;-80
2023/10/12 07:36:53;;;;;;;14.48;13.10;;;19.90;99.90;;;;;;6336873;23;20097;-82
2023/10/12 07:39:38;;;;;;;15.00;13.57;;;19.70;99.90;;;;;;6336792;23;20010;-81
2023/10/12 07:45:09;;;;;;;;;;;20.10;99.90;;;;;;6313878;23;20009;-81
2023/10/12 07:47:41;;;;;;;13.13;11.93;;;20.10;99.90;;;;;;6311431;23;19909;-80
2023/10/12 07:50:25;;;;;;;16.20;14.50;;;20.10;99.90;;;;;;6336542;23;20018;-83
2023/10/12 07:53:21;;;;;;;14.80;13.57;;;20.10;99.90;;;;;;6336748;23;20013;-80
2023/10/12 07:56:00;;;;;;;15.85;14.60;;;20.10;99.90;;;;;;6336639;23;20006;-80
2023/10/12 07:58:31;;;;;;;13.35;12.15;;;20.00;99.90;;;;;;6336380;23;20129;-81
2023/10/12 08:03:52;;;;;;;15.27;13.80;;;20.00;99.90;;;;;;6336683;23;20029;-81
2023/10/12 08:06:42;;;;;;;13.40;12.15;;;20.10;99.90;;;;;;6336581;23;20009;-79
2023/10/12 08:09:34;;;;;;;12.32;11.18;;;20.50;99.90;;;;;;6336477;23;20014;-81
2023/10/12 08:12:23;;;;;;;11.73;10.75;;;20.60;99.90;;;;;;6335765;23;20002;-80
2023/10/12 08:15:04;;;;;;;12.82;11.20;;;20.40;99.90;;;;;;6431077;23;20005;-82
2023/10/12 08:17:45;;;;;;;12.13;10.75;;;20.50;99.90;;;;;;6404677;23;20009;-82
2023/10/12 08:23:05;;;;;;;11.00;8.93;;;20.80;99.90;;;;;;6431288;23;20023;-84
2023/10/12 08:25:39;;;;;;;8.63;7.82;;;21.20;99.90;;;;;;6430972;23;20008;-80
2023/10/12 08:28:18;;;;;;;9.38;7.13;;;21.00;99.90;;;;;;6430823;23;20047;-83
2023/10/12 08:30:57;;;;;;;9.57;6.80;;;20.60;99.90;;;;;;6431348;23;20335;-82
2023/10/12 08:38:54;;;;;;;8.50;7.18;;;21.10;99.90;;;;;;6431232;23;20008;-84
2023/10/12 08:43:59;;;;;;;10.52;6.45;;;20.70;99.90;;;;;;6431449;23;20004;-82
2023/10/12 08:49:34;;;;;;;8.65;5.38;;;20.70;99.90;;;;;;6431125;23;20023;-82
2023/10/12 08:52:18;;;;;;;8.98;5.25;;;20.70;99.90;;;;;;6430818;23;20328;-82
2023/10/12 08:55:12;;;;;;;7.80;6.28;;;20.70;99.90;;;;;;6430428;23;20051;-80
2023/10/12 08:58:11;;;;;;;6.82;6.13;;;21.40;99.90;;;;;;6430731;23;20337;-83
2023/10/12 09:03:38;;;;;;;10.73;5.78;;;20.80;99.90;;;;;;6441101;23;20000;-84
2023/10/12 09:07:03;;;;;;;10.60;6.28;;;20.70;99.90;;;;;;6403614;23;20555;-84
2023/10/12 09:09:05;;;;;;;9.68;5.53;;;20.70;99.90;;;;;;6414538;23;20480;-83
2023/10/12 09:11:38;;;;;;;5.60;5.03;;;21.00;99.90;;;;;;6430534;23;20043;-82
2023/10/12 09:14:16;;;;;;;7.40;4.88;;;20.80;99.90;;;;;;6403705;23;20008;-82
2023/10/12 09:16:53;;;;;;;7.85;4.80;;;21.00;99.90;;;;;;6403705;23;20008;-82
2023/10/12 09:19:31;;;;;;;7.57;5.18;;;21.10;99.90;;;;;;6403680;23;20009;-82
2023/10/12 09:22:04;;;;;;;5.38;4.88;;;20.90;99.90;;;;;;6430301;23;20070;-82
2023/10/12 09:24:36;;;;;;;14.38;6.18;;;20.70;99.90;;;;;;6430531;23;19996;-84
2023/10/12 09:27:12;;;;;;;7.78;4.78;;;20.60;99.90;;;;;;6430178;23;20055;-84
2023/10/12 09:29:59;;;;;;;12.55;6.32;;;21.40;99.90;;;;;;6430709;23;20001;-83
2023/10/12 09:32:33;;;;;;;11.77;6.25;;;21.30;99.90;;;;;;6430503;23;20008;-81
2023/10/12 09:35:14;;;;;;;7.97;5.50;;;21.10;99.90;;;;;;6430423;23;20023;-84
2023/10/12 09:37:51;;;;;;;7.20;5.22;;;21.00;99.90;;;;;;6430382;23;20000;-81
2023/10/12 09:40:26;;;;;;;8.63;5.57;;;21.10;99.90;;;;;;6430549;23;20325;-83
2023/10/12 09:43:06;;;;;;;7.18;5.88;;;21.70;99.90;;;;;;6429988;23;20047;-82
2023/10/12 09:45:41;;;;;;;7.53;6.03;;;21.70;99.90;;;;;;6403590;23;20011;-84
2023/10/12 09:48:29;;;;;;;7.93;6.72;;;22.00;99.90;;;;;;6430162;23;20008;-80
2023/10/12 09:51:06;;;;;;;7.03;6.30;;;21.70;99.90;;;;;;6429700;23;20054;-84
2023/10/12 09:54:15;;;;;;;7.13;6.43;;;21.80;99.90;;;;;;6430067;23;20083;-82
2023/10/12 09:56:57;;;;;;;6.88;6.18;;;21.60;99.90;;;;;;6403492;23;20012;-81
2023/10/12 09:59:31;;;;;;;7.35;5.55;;;21.60;99.90;;;;;;6430402;23;20302;-79
2023/10/12 10:02:27;;;;;;;10.20;5.97;;;21.50;99.90;;;;;;6403500;23;20055;-79
2023/10/12 10:08:08;;;;;;;9.25;7.53;;;22.40;99.90;;;;;;6430597;23;20013;-79
2023/10/12 10:10:41;;;;;;;13.30;6.88;;;21.70;99.90;;;;;;6430340;23;20004;-83
2023/10/12 10:13:47;;;;;;;9.70;6.65;;;21.60;99.90;;;;;;6403545;23;20425;-79
2023/10/12 10:16:18;;;;;;;8.10;7.40;;;21.80;99.90;;;;;;6430252;23;20000;-85
2023/10/12 10:19:13;;;;;;;9.35;7.40;;;22.70;99.90;;;;;;6430207;23;20009;-79
2023/10/12 10:22:04;;;;;;;9.07;7.05;;;22.40;99.90;;;;;;6415106;23;20349;-84
2023/10/12 10:24:37;;;;;;;8.90;8.05;;;21.90;99.90;;;;;;6428573;23;20574;-83
2023/10/12 10:27:15;;;;;;;8.20;7.40;;;22.70;99.90;;;;;;6430151;23;20032;-79
2023/10/12 10:29:56;;;;;;;7.93;6.85;;;22.60;99.90;;;;;;6430383;23;20001;-84
2023/10/12 10:32:36;;;;;;;6.95;6.35;;;22.10;99.90;;;;;;6430386;23;20035;-83
2023/10/12 10:35:13;;;;;;;7.57;6.60;;;21.90;99.90;;;;;;6430709;23;20023;-78
2023/10/12 10:37:58;;;;;;;8.75;7.53;;;21.70;99.90;;;;;;6430018;23;20005;-83
2023/10/12 10:40:48;;;;;;;8.68;6.82;;;21.70;99.90;;;;;;6428530;23;20005;-84
2023/10/12 10:43:20;;;;;;;7.95;7.25;;;22.10;99.90;;;;;;6430227;23;20008;-82
2023/10/12 10:45:56;;;;;;;6.72;6.03;;;21.70;99.90;;;;;;6428486;23;20004;-84
2023/10/12 10:48:28;;;;;;;7.40;6.70;;;22.30;99.90;;;;;;6429330;23;20023;-79
2023/10/12 10:51:07;;;;;;;7.28;6.20;;;22.70;99.90;;;;;;6430365;23;20012;-83
2023/10/12 10:53:39;;;;;;;8.48;6.15;;;23.10;99.90;;;;;;6430428;23;20005;-79
2023/10/12 10:56:12;;;;;;;7.38;5.70;;;23.50;99.90;;;;;;6431971;23;19996;-82
2023/10/12 10:58:48;;;;;;;7.63;6.22;;;22.70;99.90;;;;;;6431909;23;20112;-81
2023/10/12 11:01:20;;;;;;;8.10;5.78;;;22.50;99.90;;;;;;6432005;23;20008;-81
2023/10/12 11:03:51;;;;;;;6.47;5.88;;;22.40;99.90;;;;;;6430541;23;20087;-79
2023/10/12 11:06:22;;;;;;;7.90;5.55;;;22.40;99.90;;;;;;6430414;23;20471;-82
2023/10/12 11:09:06;;;;;;;7.97;5.22;;;22.90;99.90;;;;;;6431776;23;20071;-82
2023/10/12 11:11:37;;;;;;;14.20;5.85;;;23.40;99.90;;;;;;6432047;23;20007;-83
2023/10/12 11:14:10;;;;;;;5.97;4.78;;;23.50;99.90;;;;;;6431972;23;20004;-82
2023/10/12 11:16:45;;;;;;;7.13;5.03;;;23.30;99.90;;;;;;6431948;23;20035;-84
2023/10/12 11:19:19;;;;;;;6.35;5.07;;;23.00;99.90;;;;;;6432034;23;20404;-79
2023/10/12 11:21:53;;;;;;;8.05;5.20;;;23.20;99.90;;;;;;6429852;23;20082;-84
2023/10/12 11:24:24;;;;;;;8.20;5.97;;;22.70;99.90;;;;;;6432072;23;20441;-79
2023/10/12 11:26:57;;;;;;;13.02;6.97;;;22.20;99.90;;;;;;6430344;23;20135;-80
2023/10/12 11:29:28;;;;;;;8.07;5.88;;;22.20;99.90;;;;;;6431921;23;20135;-84
2023/10/12 11:32:10;;;;;;;6.78;6.10;;;22.80;99.90;;;;;;6430241;23;20020;-83
2023/10/12 11:34:52;;;;;;;8.50;5.88;;;22.40;99.90;;;;;;6430143;23;20015;-83
2023/10/12 11:37:26;;;;;;;7.82;4.93;;;22.90;99.90;;;;;;6430119;23;20437;-85
2023/10/12 11:39:57;;;;;;;7.63;6.22;;;23.40;99.90;;;;;;6431428;23;20011;-85
2023/10/12 11:42:28;;;;;;;7.18;6.53;;;23.60;99.90;;;;;;6429193;23;20436;-83
2023/10/12 11:45:06;;;;;;;7.95;6.40;;;23.90;99.90;;;;;;6431333;23;20007;-80
2023/10/12 11:47:37;;;;;;;7.28;5.40;;;24.00;99.90;;;;;;6430828;23;20009;-85
2023/10/12 11:50:09;;;;;;;7.22;5.85;;;23.30;99.90;;;;;;6431636;23;20489;-83
2023/10/12 11:52:40;;;;;;;8.90;7.82;;;23.10;99.90;;;;;;6430210;23;20000;-84
2023/10/12 11:55:19;;;;;;;6.72;6.10;;;23.00;99.90;;;;;;6431450;23;20432;-78
2023/10/12 11:57:54;;;;;;;9.32;6.93;;;22.90;99.90;;;;;;6431488;23;20005;-78
2023/10/12 12:00:36;;;;;;;7.65;6.82;;;22.80;99.90;;;;;;6430879;23;19997;-87
2023/10/12 12:03:10;;;;;;;8.13;7.03;;;23.20;99.90;;;;;;6429896;23;20088;-78
2023/10/12 12:05:42;;;;;;;8.30;6.88;;;23.60;99.90;;;;;;6431298;23;20087;-83
2023/10/12 12:08:17;;;;;;;7.82;5.60;;;23.70;99.90;;;;;;6431394;23;20014;-85
2023/10/12 12:13:23;;;;;;;8.30;7.28;;;23.00;99.90;;;;;;6431245;23;20068;-82
2023/10/12 12:15:55;;;;;;;13.23;9.77;;;22.90;99.90;;;;;;6431575;23;20306;-84
2023/10/12 12:18:27;;;;;;;11.13;7.70;;;22.60;99.90;;;;;;6429770;23;20206;-83
2023/10/12 12:21:02;;;;;;;8.65;7.05;;;23.00;99.90;;;;;;6429313;23;20020;-83
2023/10/12 12:23:36;;;;;;;6.93;6.13;;;22.50;99.90;;;;;;6431533;23;20030;-83
2023/10/12 12:26:14;;;;;;;7.20;6.50;;;22.30;99.90;;;;;;6431439;23;20324;-84
2023/10/12 12:28:45;;;;;;;8.32;7.53;;;22.50;99.90;;;;;;6431040;23;20017;-85
2023/10/12 12:31:16;;;;;;;10.63;7.03;;;23.00;99.90;;;;;;6431120;23;20417;-83
2023/10/12 12:33:47;;;;;;;9.32;6.32;;;23.40;99.90;;;;;;6431007;23;20095;-85
2023/10/12 12:36:23;;;;;;;6.82;5.40;;;23.90;99.90;;;;;;6430636;23;20003;-83
2023/10/12 12:39:12;;;;;;;7.05;5.25;;;23.60;99.90;;;;;;6429500;23;20005;-82
2023/10/12 12:41:43;;;;;;;8.10;5.27;;;23.00;99.90;;;;;;6430910;23;20024;-82
2023/10/12 12:44:16;;;;;;;6.40;5.72;;;22.90;99.90;;;;;;6429507;23;20707;-83
2023/10/12 12:46:47;;;;;;;7.03;5.88;;;23.20;99.90;;;;;;6430960;23;20008;-82
2023/10/12 12:49:19;;;;;;;7.80;6.07;;;23.20;99.90;;;;;;6430937;23;20448;-83
2023/10/12 12:51:50;;;;;;;8.10;5.63;;;23.60;99.90;;;;;;6431043;23;20083;-83
2023/10/12 12:54:21;;;;;;;10.93;6.22;;;23.50;99.90;;;;;;6428979;23;20036;-82
2023/10/12 12:56:55;;;;;;;13.43;6.72;;;22.90;99.90;;;;;;6430950;23;20004;-82
2023/10/12 12:59:27;;;;;;;11.68;5.68;;;22.60;99.90;;;;;;6429403;23;20087;-83
2023/10/12 13:02:00;;;;;;;8.00;6.32;;;22.80;99.90;;;;;;6429336;23;20380;-82
2023/10/12 13:04:34;;;;;;;6.53;5.75;;;23.10;99.90;;;;;;6430821;23;20083;-83
2023/10/12 13:07:09;;;;;;;7.32;5.82;;;23.00;99.90;;;;;;6430912;23;19996;-83
2023/10/12 13:09:40;;;;;;;7.90;6.97;;;22.70;99.90;;;;;;6430844;23;20007;-82
2023/10/12 13:12:11;;;;;;;7.75;6.03;;;22.60;99.90;;;;;;6428954;23;20443;-82
2023/10/12 13:14:42;;;;;;;9.30;6.18;;;22.80;99.90;;;;;;6429343;23;20008;-82
2023/10/12 13:17:15;;;;;;;7.43;5.90;;;23.20;99.90;;;;;;6430786;23;20055;-82
2023/10/12 13:19:49;;;;;;;7.93;6.57;;;23.40;99.90;;;;;;6429228;23;20028;-83
2023/10/12 13:22:20;;;;;;;6.47;5.63;;;23.70;99.90;;;;;;6430397;23;20088;-83
2023/10/12 13:24:56;;;;;;;9.80;5.50;;;23.70;99.90;;;;;;6430292;23;20004;-83
2023/10/12 13:27:28;;;;;;;7.50;5.75;;;23.00;99.90;;;;;;6430635;23;20016;-82
2023/10/12 13:30:09;;;;;;;7.70;5.90;;;22.80;99.90;;;;;;6430679;23;20004;-82
2023/10/12 13:32:43;;;;;;;8.13;6.32;;;22.50;99.90;;;;;;6430481;23;20005;-83
2023/10/12 13:35:47;;;;;;;9.18;6.32;;;22.30;99.90;;;;;;6430276;23;20429;-82
2023/10/12 13:38:15;;;;;;;6.38;5.78;;;22.30;99.90;;;;;;6425009;23;20007;-82
2023/10/12 13:40:46;;;;;;;6.53;5.93;;;22.40;99.90;;;;;;6430500;23;20012;-81
2023/10/12 13:43:26;;;;;;;7.40;5.88;;;22.70;99.90;;;;;;6430455;23;20087;-82
2023/10/12 13:45:59;;;;;;;7.53;6.65;;;22.50;99.90;;;;;;6430300;23;20009;-82
2023/10/12 13:48:29;;;;;;;6.95;5.75;;;22.80;99.90;;;;;;6430151;23;20020;-83
2023/10/12 13:51:04;;;;;;;10.45;5.88;;;22.80;99.90;;;;;;6430282;23;20310;-81
2023/10/12 13:53:36;;;;;;;7.43;5.75;;;22.70;99.90;;;;;;6430238;23;20365;-82
2023/10/12 13:56:08;;;;;;;5.95;5.18;;;22.60;99.90;;;;;;6430397;23;20000;-82
2023/10/12 13:58:49;;;;;;;8.50;6.00;;;22.40;99.90;;;;;;6430233;23;20083;-82
2023/10/12 14:01:23;;;;;;;7.05;5.85;;;22.00;99.90;;;;;;6430102;23;20004;-83
2023/10/12 14:03:55;;;;;;;8.85;6.03;;;21.70;99.90;;;;;;6430234;23;20082;-82
2023/10/12 14:06:27;;;;;;;9.88;6.53;;;21.60;99.90;;;;;;6430354;23;20007;-82
2023/10/12 14:08:58;;;;;;;12.93;9.88;;;21.50;99.90;;;;;;6430146;23;20493;-82
2023/10/12 14:11:29;;;;;;;11.63;8.15;;;21.50;99.90;;;;;;6430069;23;20068;-82
2023/10/12 14:14:02;;;;;;;9.45;6.65;;;21.60;99.90;;;;;;6430138;23;20024;-82
2023/10/12 14:16:34;;;;;;;8.10;6.43;;;21.60;99.90;;;;;;6403592;23;20026;-83
2023/10/12 14:19:06;;;;;;;15.95;8.32;;;21.60;99.90;;;;;;6403644;23;20460;-83
2023/10/12 14:21:39;;;;;;;12.85;9.93;;;21.40;99.90;;;;;;6429852;23;20028;-82
2023/10/12 14:24:10;;;;;;;12.18;8.75;;;21.60;99.90;;;;;;6429863;23;20329;-83
2023/10/12 14:26:43;;;;;;;10.50;9.13;;;21.80;99.90;;;;;;6403482;23;20005;-83
2023/10/12 14:29:13;;;;;;;9.25;5.68;;;21.70;99.90;;;;;;6429790;23;20012;-84
2023/10/12 14:31:45;;;;;;;9.57;8.57;;;22.10;99.90;;;;;;6430049;23;20031;-84
2023/10/12 14:34:16;;;;;;;10.20;9.23;;;22.40;99.90;;;;;;6430041;23;20005;-83
2023/10/12 14:36:49;;;;;;;11.68;10.57;;;23.10;99.90;;;;;;6429781;23;20433;-82
2023/10/12 14:39:23;;;;;;;9.38;7.95;;;22.10;99.90;;;;;;6403418;23;20050;-82
2023/10/12 14:41:54;;;;;;;7.03;6.32;;;21.90;99.90;;;;;;6403634;23;20043;-82
2023/10/12 14:44:27;;;;;;;7.82;5.88;;;21.70;99.90;;;;;;6403307;23;20001;-83
2023/10/12 14:46:58;;;;;;;7.53;6.03;;;21.40;99.90;;;;;;6429980;23;20079;-82
2023/10/12 14:49:32;;;;;;;9.07;5.47;;;21.10;99.90;;;;;;6403514;23;20016;-82
2023/10/12 14:52:06;;;;;;;9.05;6.40;;;21.00;99.90;;;;;;6430007;23;20075;-82
2023/10/12 14:54:39;;;;;;;9.48;7.32;;;20.90;99.90;;;;;;6430184;23;20005;-83